Página principal
METAR-TAF:

METAR-TAF

Aeroportos :

Sal, Cabo Verde

Aeroporto Internacional Amílcar Cabral

latitude: 16-44N, longitude: 022-57W, altura: 54 m

Observação actual do tempo

O boletim foi feito há 5 minutos, às 02:00 UTC
Vento 6 kt de norte
Temperatura 25°C
Humidade 83%
Pressão 1014 hPa
Visibilidade 10 km ou mais
Nuvens dispersasa uma altura de 1400 ft

METAR: GVAC 220200Z 01006KT 9999 SCT014 25/22 Q1014 NOSIG

Hora: 01:05 (02:05 UTC)

Previsão

O boletim foi feito há 3 horas e 5 minutos, às 23:00 UTC
Previsão válida de 22 às 00 UTC a 23 às 06 UTC
Vento 10 kt de norte
Visibilidade 10 km ou mais
Nuvens fragmentadasa uma altura de 1400 ft

TAF: GVAC 212300Z 2200/2306 01010KT 9999 BKN014

Observações e previsões do tempo de mais de 4000 aeroportos (mensagens METAR e TAF).

As estações disponíveis são os pontos amarelos e vermelhos sobre o mapa.

Mova o rato sobre o mapa para ver o nome da estação.

Depois clique no ponto para visualizar as observações e previsões meteorológicas.

Para alterar o mapa : clique nos botões verdes com uma cruz preta para aumentar o zoom; no botão verde com uma pitada de zoom; ou nas setas verdes para mapas adjacentes.


METAR-TAF: